sensor_id;sensor_type;location;lat;lon;timestamp;temperature;humidity
19799;DHT22;10059;59.850;10.454;2022-09-03T00:01:45;14.20;99.90
19799;DHT22;10059;59.850;10.454;2022-09-03T00:04:18;14.30;99.90
19799;DHT22;10059;59.850;10.454;2022-09-03T00:06:50;14.20;99.90
19799;DHT22;10059;59.850;10.454;2022-09-03T00:09:24;14.20;99.90
19799;DHT22;10059;59.850;10.454;2022-09-03T00:11:57;14.00;99.90
19799;DHT22;10059;59.850;10.454;2022-09-03T00:14:31;14.10;99.90
19799;DHT22;10059;59.850;10.454;2022-09-03T00:17:04;14.10;99.90
19799;DHT22;10059;59.850;10.454;2022-09-03T00:19:37;14.20;99.90
19799;DHT22;10059;59.850;10.454;2022-09-03T00:22:10;14.30;99.90
19799;DHT22;10059;59.850;10.454;2022-09-03T00:24:41;14.10;99.90
19799;DHT22;10059;59.850;10.454;2022-09-03T00:27:13;14.00;99.90
19799;DHT22;10059;59.850;10.454;2022-09-03T00:29:45;14.00;99.90
19799;DHT22;10059;59.850;10.454;2022-09-03T00:32:19;13.90;99.90
19799;DHT22;10059;59.850;10.454;2022-09-03T00:34:50;13.80;99.90
19799;DHT22;10059;59.850;10.454;2022-09-03T00:37:20;13.60;99.90
19799;DHT22;10059;59.850;10.454;2022-09-03T00:39:47;13.70;99.90
19799;DHT22;10059;59.850;10.454;2022-09-03T00:42:28;13.70;99.90
19799;DHT22;10059;59.850;10.454;2022-09-03T00:45:22;13.90;99.90
19799;DHT22;10059;59.850;10.454;2022-09-03T00:48:02;13.80;99.90
19799;DHT22;10059;59.850;10.454;2022-09-03T00:50:43;13.80;99.90
19799;DHT22;10059;59.850;10.454;2022-09-03T00:53:15;13.80;99.90
19799;DHT22;10059;59.850;10.454;2022-09-03T00:55:51;13.90;99.90
19799;DHT22;10059;59.850;10.454;2022-09-03T00:58:42;14.00;99.90
19799;DHT22;10059;59.850;10.454;2022-09-03T01:01:15;14.10;99.90
19799;DHT22;10059;59.850;10.454;2022-09-03T01:03:53;14.00;99.90
19799;DHT22;10059;59.850;10.454;2022-09-03T01:06:28;13.90;99.90
19799;DHT22;10059;59.850;10.454;2022-09-03T01:09:22;13.90;99.90
19799;DHT22;10059;59.850;10.454;2022-09-03T01:11:58;13.90;99.90
19799;DHT22;10059;59.850;10.454;2022-09-03T01:14:34;13.80;99.90
19799;DHT22;10059;59.850;10.454;2022-09-03T01:17:11;13.70;99.90
19799;DHT22;10059;59.850;10.454;2022-09-03T01:20:00;13.80;99.90
19799;DHT22;10059;59.850;10.454;2022-09-03T01:23:07;13.80;99.90
19799;DHT22;10059;59.850;10.454;2022-09-03T01:25:48;13.90;99.90
19799;DHT22;10059;59.850;10.454;2022-09-03T01:28:27;13.80;99.90
19799;DHT22;10059;59.850;10.454;2022-09-03T01:31:04;13.80;99.90
19799;DHT22;10059;59.850;10.454;2022-09-03T01:33:39;13.60;99.90
19799;DHT22;10059;59.850;10.454;2022-09-03T01:36:15;13.70;99.90
19799;DHT22;10059;59.850;10.454;2022-09-03T01:38:48;13.90;99.90
19799;DHT22;10059;59.850;10.454;2022-09-03T01:41:24;13.90;99.90
19799;DHT22;10059;59.850;10.454;2022-09-03T01:44:17;14.00;99.90
19799;DHT22;10059;59.850;10.454;2022-09-03T01:46:51;14.00;99.90
19799;DHT22;10059;59.850;10.454;2022-09-03T01:49:26;13.90;99.90
19799;DHT22;10059;59.850;10.454;2022-09-03T01:52:04;13.90;99.90
19799;DHT22;10059;59.850;10.454;2022-09-03T01:54:48;13.70;99.90
19799;DHT22;10059;59.850;10.454;2022-09-03T01:57:37;13.80;99.90
19799;DHT22;10059;59.850;10.454;2022-09-03T02:00:08;13.80;99.90
19799;DHT22;10059;59.850;10.454;2022-09-03T02:02:38;13.80;99.90
19799;DHT22;10059;59.850;10.454;2022-09-03T02:05:09;13.80;99.90
19799;DHT22;10059;59.850;10.454;2022-09-03T02:07:39;13.90;99.90
19799;DHT22;10059;59.850;10.454;2022-09-03T02:10:08;13.90;99.90
19799;DHT22;10059;59.850;10.454;2022-09-03T02:12:38;13.90;99.90
19799;DHT22;10059;59.850;10.454;2022-09-03T02:15:11;13.80;99.90
19799;DHT22;10059;59.850;10.454;2022-09-03T02:17:40;13.80;99.90
19799;DHT22;10059;59.850;10.454;2022-09-03T02:20:11;13.70;99.90
19799;DHT22;10059;59.850;10.454;2022-09-03T02:22:38;13.70;99.90
19799;DHT22;10059;59.850;10.454;2022-09-03T02:25:06;13.70;99.90
19799;DHT22;10059;59.850;10.454;2022-09-03T02:27:35;13.70;99.90
19799;DHT22;10059;59.850;10.454;2022-09-03T02:30:03;13.70;99.90
19799;DHT22;10059;59.850;10.454;2022-09-03T02:32:31;13.70;99.90
19799;DHT22;10059;59.850;10.454;2022-09-03T02:34:58;13.70;99.90
19799;DHT22;10059;59.850;10.454;2022-09-03T02:37:25;13.80;99.90
19799;DHT22;10059;59.850;10.454;2022-09-03T02:39:52;13.80;99.90
19799;DHT22;10059;59.850;10.454;2022-09-03T02:42:19;13.70;99.90
19799;DHT22;10059;59.850;10.454;2022-09-03T02:44:49;13.70;99.90
19799;DHT22;10059;59.850;10.454;2022-09-03T02:47:18;13.70;99.90
19799;DHT22;10059;59.850;10.454;2022-09-03T02:49:47;13.60;99.90
19799;DHT22;10059;59.850;10.454;2022-09-03T02:52:15;13.60;99.90
19799;DHT22;10059;59.850;10.454;2022-09-03T02:54:42;13.60;99.90
19799;DHT22;10059;59.850;10.454;2022-09-03T02:57:12;13.60;99.90
19799;DHT22;10059;59.850;10.454;2022-09-03T02:59:40;13.60;99.90
19799;DHT22;10059;59.850;10.454;2022-09-03T03:02:10;13.60;99.90
19799;DHT22;10059;59.850;10.454;2022-09-03T03:04:37;13.60;99.90
19799;DHT22;10059;59.850;10.454;2022-09-03T03:07:06;13.60;99.90
19799;DHT22;10059;59.850;10.454;2022-09-03T03:09:33;13.50;99.90
19799;DHT22;10059;59.850;10.454;2022-09-03T03:12:00;13.50;99.90
19799;DHT22;10059;59.850;10.454;2022-09-03T03:14:27;13.40;99.90
19799;DHT22;10059;59.850;10.454;2022-09-03T03:16:53;13.40;99.90
19799;DHT22;10059;59.850;10.454;2022-09-03T03:19:20;13.40;99.90
19799;DHT22;10059;59.850;10.454;2022-09-03T03:21:47;13.40;99.90
19799;DHT22;10059;59.850;10.454;2022-09-03T03:24:16;13.40;99.90
19799;DHT22;10059;59.850;10.454;2022-09-03T03:26:43;13.50;99.90
19799;DHT22;10059;59.850;10.454;2022-09-03T03:29:14;13.50;99.90
19799;DHT22;10059;59.850;10.454;2022-09-03T03:31:43;13.40;99.90
19799;DHT22;10059;59.850;10.454;2022-09-03T03:34:10;13.50;99.90
19799;DHT22;10059;59.850;10.454;2022-09-03T03:36:37;13.50;99.90
19799;DHT22;10059;59.850;10.454;2022-09-03T03:39:03;13.60;99.90
19799;DHT22;10059;59.850;10.454;2022-09-03T03:41:33;13.50;99.90
19799;DHT22;10059;59.850;10.454;2022-09-03T03:44:02;13.60;99.90
19799;DHT22;10059;59.850;10.454;2022-09-03T03:46:32;13.70;99.90
19799;DHT22;10059;59.850;10.454;2022-09-03T03:48:59;13.80;99.90
19799;DHT22;10059;59.850;10.454;2022-09-03T03:51:27;13.60;99.90
19799;DHT22;10059;59.850;10.454;2022-09-03T03:53:55;13.70;99.90
19799;DHT22;10059;59.850;10.454;2022-09-03T03:56:24;13.80;99.90
19799;DHT22;10059;59.850;10.454;2022-09-03T03:58:53;13.80;99.90
19799;DHT22;10059;59.850;10.454;2022-09-03T04:01:21;13.60;99.90
19799;DHT22;10059;59.850;10.454;2022-09-03T04:03:49;13.60;99.90
19799;DHT22;10059;59.850;10.454;2022-09-03T04:06:17;13.70;99.90
19799;DHT22;10059;59.850;10.454;2022-09-03T04:08:46;13.70;99.90
19799;DHT22;10059;59.850;10.454;2022-09-03T04:11:15;13.80;99.90
19799;DHT22;10059;59.850;10.454;2022-09-03T04:13:44;13.80;99.90
19799;DHT22;10059;59.850;10.454;2022-09-03T04:16:14;13.80;99.90
19799;DHT22;10059;59.850;10.454;2022-09-03T04:18:41;13.70;99.90
19799;DHT22;10059;59.850;10.454;2022-09-03T04:21:10;13.60;99.90
19799;DHT22;10059;59.850;10.454;2022-09-03T04:23:38;13.80;99.90
19799;DHT22;10059;59.850;10.454;2022-09-03T04:26:06;13.70;99.90
19799;DHT22;10059;59.850;10.454;2022-09-03T04:28:34;13.70;99.90
19799;DHT22;10059;59.850;10.454;2022-09-03T04:31:01;13.50;99.90
19799;DHT22;10059;59.850;10.454;2022-09-03T04:33:30;13.30;99.90
19799;DHT22;10059;59.850;10.454;2022-09-03T04:36:03;13.50;99.90
19799;DHT22;10059;59.850;10.454;2022-09-03T04:38:31;13.60;99.90
19799;DHT22;10059;59.850;10.454;2022-09-03T04:40:58;13.80;99.90
19799;DHT22;10059;59.850;10.454;2022-09-03T04:43:26;13.80;99.90
19799;DHT22;10059;59.850;10.454;2022-09-03T04:45:56;13.70;99.90
19799;DHT22;10059;59.850;10.454;2022-09-03T04:48:23;13.70;99.90
19799;DHT22;10059;59.850;10.454;2022-09-03T04:50:52;13.60;99.90
19799;DHT22;10059;59.850;10.454;2022-09-03T04:53:19;13.60;99.90
19799;DHT22;10059;59.850;10.454;2022-09-03T04:55:47;13.50;99.90
19799;DHT22;10059;59.850;10.454;2022-09-03T04:58:14;13.40;99.90
19799;DHT22;10059;59.850;10.454;2022-09-03T05:00:40;13.30;99.90
19799;DHT22;10059;59.850;10.454;2022-09-03T05:03:07;13.20;99.90
19799;DHT22;10059;59.850;10.454;2022-09-03T05:05:34;13.20;99.90
19799;DHT22;10059;59.850;10.454;2022-09-03T05:08:03;13.40;99.90
19799;DHT22;10059;59.850;10.454;2022-09-03T05:10:31;13.30;99.90
19799;DHT22;10059;59.850;10.454;2022-09-03T05:13:00;13.30;99.90
19799;DHT22;10059;59.850;10.454;2022-09-03T05:15:27;13.40;99.90
19799;DHT22;10059;59.850;10.454;2022-09-03T05:17:57;13.30;99.90
19799;DHT22;10059;59.850;10.454;2022-09-03T05:20:25;13.30;99.90
19799;DHT22;10059;59.850;10.454;2022-09-03T05:22:54;13.40;99.90
19799;DHT22;10059;59.850;10.454;2022-09-03T05:25:23;13.50;99.90
19799;DHT22;10059;59.850;10.454;2022-09-03T05:27:50;13.40;99.90
19799;DHT22;10059;59.850;10.454;2022-09-03T05:30:18;13.20;99.90
19799;DHT22;10059;59.850;10.454;2022-09-03T05:32:47;13.10;99.90
19799;DHT22;10059;59.850;10.454;2022-09-03T05:35:14;13.30;99.90
19799;DHT22;10059;59.850;10.454;2022-09-03T05:37:41;13.40;99.90
19799;DHT22;10059;59.850;10.454;2022-09-03T05:40:08;13.50;99.90
19799;DHT22;10059;59.850;10.454;2022-09-03T05:42:37;13.60;99.90
19799;DHT22;10059;59.850;10.454;2022-09-03T05:45:06;13.50;99.90
19799;DHT22;10059;59.850;10.454;2022-09-03T05:47:35;13.60;99.90
19799;DHT22;10059;59.850;10.454;2022-09-03T05:50:05;13.60;99.90
19799;DHT22;10059;59.850;10.454;2022-09-03T05:52:32;13.70;99.90
19799;DHT22;10059;59.850;10.454;2022-09-03T05:54:59;13.60;99.90
19799;DHT22;10059;59.850;10.454;2022-09-03T05:57:26;13.60;99.90
19799;DHT22;10059;59.850;10.454;2022-09-03T05:59:55;13.70;99.90
19799;DHT22;10059;59.850;10.454;2022-09-03T06:02:22;13.80;99.90
19799;DHT22;10059;59.850;10.454;2022-09-03T06:04:49;13.80;99.90
19799;DHT22;10059;59.850;10.454;2022-09-03T06:07:16;13.70;99.90
19799;DHT22;10059;59.850;10.454;2022-09-03T06:09:43;13.70;99.90
19799;DHT22;10059;59.850;10.454;2022-09-03T06:12:09;13.90;99.90
19799;DHT22;10059;59.850;10.454;2022-09-03T06:14:36;13.80;99.90
19799;DHT22;10059;59.850;10.454;2022-09-03T06:17:05;13.80;99.90
19799;DHT22;10059;59.850;10.454;2022-09-03T06:19:35;13.80;99.90
19799;DHT22;10059;59.850;10.454;2022-09-03T06:22:02;13.80;99.90
19799;DHT22;10059;59.850;10.454;2022-09-03T06:24:29;13.70;99.90
19799;DHT22;10059;59.850;10.454;2022-09-03T06:26:56;13.90;99.90
19799;DHT22;10059;59.850;10.454;2022-09-03T06:29:24;13.90;99.90
19799;DHT22;10059;59.850;10.454;2022-09-03T06:31:51;13.80;99.90
19799;DHT22;10059;59.850;10.454;2022-09-03T06:34:19;13.80;99.90
19799;DHT22;10059;59.850;10.454;2022-09-03T06:36:47;13.80;99.90
19799;DHT22;10059;59.850;10.454;2022-09-03T06:39:15;13.80;99.90
19799;DHT22;10059;59.850;10.454;2022-09-03T06:41:41;13.90;99.90
19799;DHT22;10059;59.850;10.454;2022-09-03T06:44:09;13.90;99.90
19799;DHT22;10059;59.850;10.454;2022-09-03T06:46:39;13.90;99.90
19799;DHT22;10059;59.850;10.454;2022-09-03T06:49:07;13.90;99.90
19799;DHT22;10059;59.850;10.454;2022-09-03T06:51:35;14.00;99.90
19799;DHT22;10059;59.850;10.454;2022-09-03T06:54:04;14.00;99.90
19799;DHT22;10059;59.850;10.454;2022-09-03T06:56:32;14.00;99.90
19799;DHT22;10059;59.850;10.454;2022-09-03T06:59:04;14.20;99.90
19799;DHT22;10059;59.850;10.454;2022-09-03T07:01:32;14.20;99.90
19799;DHT22;10059;59.850;10.454;2022-09-03T07:04:01;14.40;99.90
19799;DHT22;10059;59.850;10.454;2022-09-03T07:06:30;14.50;99.90
19799;DHT22;10059;59.850;10.454;2022-09-03T07:08:59;14.40;99.90
19799;DHT22;10059;59.850;10.454;2022-09-03T07:11:27;14.50;99.90
19799;DHT22;10059;59.850;10.454;2022-09-03T07:13:58;14.70;99.90
19799;DHT22;10059;59.850;10.454;2022-09-03T07:16:27;14.70;99.90
19799;DHT22;10059;59.850;10.454;2022-09-03T07:18:54;14.60;99.90
19799;DHT22;10059;59.850;10.454;2022-09-03T07:21:23;14.70;99.90
19799;DHT22;10059;59.850;10.454;2022-09-03T07:23:52;14.60;99.90
19799;DHT22;10059;59.850;10.454;2022-09-03T07:26:21;14.50;99.90
19799;DHT22;10059;59.850;10.454;2022-09-03T07:28:49;14.60;99.90
19799;DHT22;10059;59.850;10.454;2022-09-03T07:31:17;14.70;99.90
19799;DHT22;10059;59.850;10.454;2022-09-03T07:33:46;14.80;99.90
19799;DHT22;10059;59.850;10.454;2022-09-03T07:36:14;14.90;99.90
19799;DHT22;10059;59.850;10.454;2022-09-03T07:38:41;15.10;99.90
19799;DHT22;10059;59.850;10.454;2022-09-03T07:41:10;15.10;99.90
19799;DHT22;10059;59.850;10.454;2022-09-03T07:43:40;15.10;99.90
19799;DHT22;10059;59.850;10.454;2022-09-03T07:46:08;15.30;99.90
19799;DHT22;10059;59.850;10.454;2022-09-03T07:48:38;15.60;99.90
19799;DHT22;10059;59.850;10.454;2022-09-03T07:51:05;15.90;99.90
19799;DHT22;10059;59.850;10.454;2022-09-03T07:53:33;16.10;99.90
19799;DHT22;10059;59.850;10.454;2022-09-03T07:56:01;16.20;99.90
19799;DHT22;10059;59.850;10.454;2022-09-03T07:58:28;16.20;99.90
19799;DHT22;10059;59.850;10.454;2022-09-03T08:00:57;16.30;99.90
19799;DHT22;10059;59.850;10.454;2022-09-03T08:03:24;16.30;99.90
19799;DHT22;10059;59.850;10.454;2022-09-03T08:05:51;16.40;99.90
19799;DHT22;10059;59.850;10.454;2022-09-03T08:08:18;16.50;99.90
19799;DHT22;10059;59.850;10.454;2022-09-03T08:10:45;16.80;99.90
19799;DHT22;10059;59.850;10.454;2022-09-03T08:13:12;17.20;99.90
19799;DHT22;10059;59.850;10.454;2022-09-03T08:15:39;17.00;99.90
19799;DHT22;10059;59.850;10.454;2022-09-03T08:18:09;17.20;99.90
19799;DHT22;10059;59.850;10.454;2022-09-03T08:20:36;17.10;99.90
19799;DHT22;10059;59.850;10.454;2022-09-03T08:23:04;17.10;99.90
19799;DHT22;10059;59.850;10.454;2022-09-03T08:25:31;17.30;99.90
19799;DHT22;10059;59.850;10.454;2022-09-03T08:27:58;17.00;99.90
19799;DHT22;10059;59.850;10.454;2022-09-03T08:30:26;17.60;99.90
19799;DHT22;10059;59.850;10.454;2022-09-03T08:32:54;17.30;99.90
19799;DHT22;10059;59.850;10.454;2022-09-03T08:35:22;18.10;99.90
19799;DHT22;10059;59.850;10.454;2022-09-03T08:37:49;18.80;99.90
19799;DHT22;10059;59.850;10.454;2022-09-03T08:40:19;19.20;99.90
19799;DHT22;10059;59.850;10.454;2022-09-03T08:42:59;18.90;99.90
19799;DHT22;10059;59.850;10.454;2022-09-03T08:45:32;19.10;99.90
19799;DHT22;10059;59.850;10.454;2022-09-03T08:48:04;19.00;99.90
19799;DHT22;10059;59.850;10.454;2022-09-03T08:50:38;18.70;99.90
19799;DHT22;10059;59.850;10.454;2022-09-03T08:53:10;18.20;99.90
19799;DHT22;10059;59.850;10.454;2022-09-03T08:55:42;17.90;99.90
19799;DHT22;10059;59.850;10.454;2022-09-03T08:58:15;18.10;99.90
19799;DHT22;10059;59.850;10.454;2022-09-03T09:00:51;17.80;99.90
19799;DHT22;10059;59.850;10.454;2022-09-03T09:03:35;17.40;99.90
19799;DHT22;10059;59.850;10.454;2022-09-03T09:06:15;17.20;99.90
19799;DHT22;10059;59.850;10.454;2022-09-03T09:08:51;17.00;99.90
19799;DHT22;10059;59.850;10.454;2022-09-03T09:11:29;16.90;99.90
19799;DHT22;10059;59.850;10.454;2022-09-03T09:14:04;16.80;99.90
19799;DHT22;10059;59.850;10.454;2022-09-03T09:16:39;16.60;99.90
19799;DHT22;10059;59.850;10.454;2022-09-03T09:19:19;16.60;99.90
19799;DHT22;10059;59.850;10.454;2022-09-03T09:21:53;16.40;99.90
19799;DHT22;10059;59.850;10.454;2022-09-03T09:24:23;16.50;99.90
19799;DHT22;10059;59.850;10.454;2022-09-03T09:26:54;16.50;99.90
19799;DHT22;10059;59.850;10.454;2022-09-03T09:29:21;16.60;99.90
19799;DHT22;10059;59.850;10.454;2022-09-03T09:31:48;16.20;99.90
19799;DHT22;10059;59.850;10.454;2022-09-03T09:34:15;16.10;99.90
19799;DHT22;10059;59.850;10.454;2022-09-03T09:36:45;16.10;99.90
19799;DHT22;10059;59.850;10.454;2022-09-03T09:39:15;16.10;99.90
19799;DHT22;10059;59.850;10.454;2022-09-03T09:41:42;16.20;99.90
19799;DHT22;10059;59.850;10.454;2022-09-03T09:44:19;15.90;99.90
19799;DHT22;10059;59.850;10.454;2022-09-03T09:46:46;15.90;99.90
19799;DHT22;10059;59.850;10.454;2022-09-03T09:49:29;15.90;99.90
19799;DHT22;10059;59.850;10.454;2022-09-03T09:52:00;16.00;99.90
19799;DHT22;10059;59.850;10.454;2022-09-03T09:54:30;16.30;99.90
19799;DHT22;10059;59.850;10.454;2022-09-03T09:57:02;16.60;99.90
19799;DHT22;10059;59.850;10.454;2022-09-03T09:59:30;16.70;99.90
19799;DHT22;10059;59.850;10.454;2022-09-03T10:02:10;16.40;99.90
19799;DHT22;10059;59.850;10.454;2022-09-03T10:04:38;16.30;99.90
19799;DHT22;10059;59.850;10.454;2022-09-03T10:07:25;16.50;99.90
19799;DHT22;10059;59.850;10.454;2022-09-03T10:10:02;16.80;99.90
19799;DHT22;10059;59.850;10.454;2022-09-03T10:12:32;16.80;99.90
19799;DHT22;10059;59.850;10.454;2022-09-03T10:15:10;16.90;99.90
19799;DHT22;10059;59.850;10.454;2022-09-03T10:17:46;17.00;99.90
19799;DHT22;10059;59.850;10.454;2022-09-03T10:20:21;17.10;99.90
19799;DHT22;10059;59.850;10.454;2022-09-03T10:22:58;17.00;99.90
19799;DHT22;10059;59.850;10.454;2022-09-03T10:25:33;17.00;99.90
19799;DHT22;10059;59.850;10.454;2022-09-03T10:28:05;16.90;99.90
19799;DHT22;10059;59.850;10.454;2022-09-03T10:30:42;16.80;99.90
19799;DHT22;10059;59.850;10.454;2022-09-03T10:33:15;16.70;99.90
19799;DHT22;10059;59.850;10.454;2022-09-03T10:35:51;16.90;99.90
19799;DHT22;10059;59.850;10.454;2022-09-03T10:38:26;16.80;99.90
19799;DHT22;10059;59.850;10.454;2022-09-03T10:41:05;17.00;99.90
19799;DHT22;10059;59.850;10.454;2022-09-03T10:43:54;16.60;99.90
19799;DHT22;10059;59.850;10.454;2022-09-03T10:46:26;17.00;99.90
19799;DHT22;10059;59.850;10.454;2022-09-03T10:49:15;17.40;99.90
19799;DHT22;10059;59.850;10.454;2022-09-03T10:51:49;17.90;99.90
19799;DHT22;10059;59.850;10.454;2022-09-03T10:54:29;17.90;99.90
19799;DHT22;10059;59.850;10.454;2022-09-03T10:57:07;18.00;99.90
19799;DHT22;10059;59.850;10.454;2022-09-03T10:59:49;18.20;99.90
19799;DHT22;10059;59.850;10.454;2022-09-03T11:02:32;18.30;99.90
19799;DHT22;10059;59.850;10.454;2022-09-03T11:05:08;17.70;99.90
19799;DHT22;10059;59.850;10.454;2022-09-03T11:07:41;17.70;99.90
19799;DHT22;10059;59.850;10.454;2022-09-03T11:10:15;17.50;99.90
19799;DHT22;10059;59.850;10.454;2022-09-03T11:12:48;17.80;99.90
19799;DHT22;10059;59.850;10.454;2022-09-03T11:15:22;17.70;99.90
19799;DHT22;10059;59.850;10.454;2022-09-03T11:17:54;17.60;99.90
19799;DHT22;10059;59.850;10.454;2022-09-03T11:20:25;17.60;99.90
19799;DHT22;10059;59.850;10.454;2022-09-03T11:22:54;17.60;99.90
19799;DHT22;10059;59.850;10.454;2022-09-03T11:25:27;17.50;99.90
19799;DHT22;10059;59.850;10.454;2022-09-03T11:28:06;17.30;99.90
19799;DHT22;10059;59.850;10.454;2022-09-03T11:30:49;17.60;99.90
19799;DHT22;10059;59.850;10.454;2022-09-03T11:33:21;17.80;99.90
19799;DHT22;10059;59.850;10.454;2022-09-03T11:35:55;17.80;99.90
19799;DHT22;10059;59.850;10.454;2022-09-03T11:38:26;17.90;99.90
19799;DHT22;10059;59.850;10.454;2022-09-03T11:41:11;17.80;99.90
19799;DHT22;10059;59.850;10.454;2022-09-03T11:43:40;17.30;99.90
19799;DHT22;10059;59.850;10.454;2022-09-03T11:46:10;17.50;99.90
19799;DHT22;10059;59.850;10.454;2022-09-03T11:48:44;17.90;99.90
19799;DHT22;10059;59.850;10.454;2022-09-03T11:51:28;17.80;99.90
19799;DHT22;10059;59.850;10.454;2022-09-03T11:53:57;17.60;99.90
19799;DHT22;10059;59.850;10.454;2022-09-03T11:56:25;17.70;99.90
19799;DHT22;10059;59.850;10.454;2022-09-03T11:59:02;18.30;99.90
19799;DHT22;10059;59.850;10.454;2022-09-03T12:01:31;18.60;99.90
19799;DHT22;10059;59.850;10.454;2022-09-03T12:04:00;18.50;99.90
19799;DHT22;10059;59.850;10.454;2022-09-03T12:06:56;18.20;99.90
19799;DHT22;10059;59.850;10.454;2022-09-03T12:09:37;17.90;99.90
19799;DHT22;10059;59.850;10.454;2022-09-03T12:12:25;17.60;99.90
19799;DHT22;10059;59.850;10.454;2022-09-03T12:15:02;17.40;99.90
19799;DHT22;10059;59.850;10.454;2022-09-03T12:17:34;17.60;99.90
19799;DHT22;10059;59.850;10.454;2022-09-03T12:20:11;17.50;99.90
19799;DHT22;10059;59.850;10.454;2022-09-03T12:22:39;18.20;99.90
19799;DHT22;10059;59.850;10.454;2022-09-03T12:25:07;18.00;99.90
19799;DHT22;10059;59.850;10.454;2022-09-03T12:27:35;18.20;99.90
19799;DHT22;10059;59.850;10.454;2022-09-03T12:30:12;18.30;99.90
19799;DHT22;10059;59.850;10.454;2022-09-03T12:32:39;18.60;99.90
19799;DHT22;10059;59.850;10.454;2022-09-03T12:35:12;18.60;99.90
19799;DHT22;10059;59.850;10.454;2022-09-03T12:37:41;19.40;99.90
19799;DHT22;10059;59.850;10.454;2022-09-03T12:40:18;19.30;99.90
19799;DHT22;10059;59.850;10.454;2022-09-03T12:42:46;18.60;99.90
19799;DHT22;10059;59.850;10.454;2022-09-03T12:45:18;18.60;99.90
19799;DHT22;10059;59.850;10.454;2022-09-03T12:47:45;18.10;99.90
19799;DHT22;10059;59.850;10.454;2022-09-03T12:50:13;17.90;99.90
19799;DHT22;10059;59.850;10.454;2022-09-03T12:52:45;17.90;99.90
19799;DHT22;10059;59.850;10.454;2022-09-03T12:55:27;18.30;99.90
19799;DHT22;10059;59.850;10.454;2022-09-03T12:58:00;18.60;99.90
19799;DHT22;10059;59.850;10.454;2022-09-03T13:00:32;19.20;99.90
19799;DHT22;10059;59.850;10.454;2022-09-03T13:03:03;19.30;99.90
19799;DHT22;10059;59.850;10.454;2022-09-03T13:05:34;19.20;99.90
19799;DHT22;10059;59.850;10.454;2022-09-03T13:08:03;19.40;99.90
19799;DHT22;10059;59.850;10.454;2022-09-03T13:10:35;18.90;99.90
19799;DHT22;10059;59.850;10.454;2022-09-03T13:13:14;18.60;99.90
19799;DHT22;10059;59.850;10.454;2022-09-03T13:15:55;18.50;99.90
19799;DHT22;10059;59.850;10.454;2022-09-03T13:18:27;18.50;99.90
19799;DHT22;10059;59.850;10.454;2022-09-03T13:21:06;18.40;99.90
19799;DHT22;10059;59.850;10.454;2022-09-03T13:24:01;18.10;99.90
19799;DHT22;10059;59.850;10.454;2022-09-03T13:26:39;17.90;99.90
19799;DHT22;10059;59.850;10.454;2022-09-03T13:29:23;18.00;99.90
19799;DHT22;10059;59.850;10.454;2022-09-03T13:32:02;18.10;99.90
19799;DHT22;10059;59.850;10.454;2022-09-03T13:34:38;18.00;99.90
19799;DHT22;10059;59.850;10.454;2022-09-03T13:37:21;17.90;99.90
19799;DHT22;10059;59.850;10.454;2022-09-03T13:39:53;17.80;99.90
19799;DHT22;10059;59.850;10.454;2022-09-03T13:42:25;17.30;99.90
19799;DHT22;10059;59.850;10.454;2022-09-03T13:44:56;17.40;99.90
19799;DHT22;10059;59.850;10.454;2022-09-03T13:47:31;17.20;99.90
19799;DHT22;10059;59.850;10.454;2022-09-03T13:50:03;17.20;99.90
19799;DHT22;10059;59.850;10.454;2022-09-03T13:52:52;17.30;99.90
19799;DHT22;10059;59.850;10.454;2022-09-03T13:55:27;17.10;99.90
19799;DHT22;10059;59.850;10.454;2022-09-03T13:58:01;17.30;99.90
19799;DHT22;10059;59.850;10.454;2022-09-03T14:00:33;17.30;99.90
19799;DHT22;10059;59.850;10.454;2022-09-03T14:03:10;17.50;99.90
19799;DHT22;10059;59.850;10.454;2022-09-03T14:05:59;17.30;99.90
19799;DHT22;10059;59.850;10.454;2022-09-03T14:08:31;17.30;99.90
19799;DHT22;10059;59.850;10.454;2022-09-03T14:11:08;17.40;99.90
19799;DHT22;10059;59.850;10.454;2022-09-03T14:13:47;17.20;99.90
19799;DHT22;10059;59.850;10.454;2022-09-03T14:16:28;17.20;99.90
19799;DHT22;10059;59.850;10.454;2022-09-03T14:19:02;17.20;99.90
19799;DHT22;10059;59.850;10.454;2022-09-03T14:21:35;17.30;99.90
19799;DHT22;10059;59.850;10.454;2022-09-03T14:24:10;17.40;99.90
19799;DHT22;10059;59.850;10.454;2022-09-03T14:26:49;17.40;99.90
19799;DHT22;10059;59.850;10.454;2022-09-03T14:29:17;17.70;99.90
19799;DHT22;10059;59.850;10.454;2022-09-03T14:40:42;17.90;99.90
19799;DHT22;10059;59.850;10.454;2022-09-03T14:43:42;17.80;99.90
19799;DHT22;10059;59.850;10.454;2022-09-03T14:46:22;17.80;99.90
19799;DHT22;10059;59.850;10.454;2022-09-03T14:49:14;18.10;99.90
19799;DHT22;10059;59.850;10.454;2022-09-03T14:52:01;18.50;99.90
19799;DHT22;10059;59.850;10.454;2022-09-03T14:54:51;18.50;99.90
19799;DHT22;10059;59.850;10.454;2022-09-03T14:57:35;18.00;99.90
19799;DHT22;10059;59.850;10.454;2022-09-03T15:00:13;17.90;99.90
19799;DHT22;10059;59.850;10.454;2022-09-03T15:03:15;17.40;99.90
19799;DHT22;10059;59.850;10.454;2022-09-03T15:06:01;17.10;99.90
19799;DHT22;10059;59.850;10.454;2022-09-03T15:08:46;17.00;99.90
19799;DHT22;10059;59.850;10.454;2022-09-03T15:11:17;17.30;99.90
19799;DHT22;10059;59.850;10.454;2022-09-03T15:13:49;17.60;99.90
19799;DHT22;10059;59.850;10.454;2022-09-03T15:16:30;17.60;99.90
19799;DHT22;10059;59.850;10.454;2022-09-03T15:19:10;17.60;99.90
19799;DHT22;10059;59.850;10.454;2022-09-03T15:21:48;17.90;99.90
19799;DHT22;10059;59.850;10.454;2022-09-03T15:24:25;18.10;99.90
19799;DHT22;10059;59.850;10.454;2022-09-03T15:27:08;18.00;99.90
19799;DHT22;10059;59.850;10.454;2022-09-03T15:29:48;18.10;99.90
19799;DHT22;10059;59.850;10.454;2022-09-03T15:32:29;17.90;99.90
19799;DHT22;10059;59.850;10.454;2022-09-03T15:35:06;17.80;99.90
19799;DHT22;10059;59.850;10.454;2022-09-03T15:37:42;17.60;99.90
19799;DHT22;10059;59.850;10.454;2022-09-03T15:40:23;17.10;99.90
19799;DHT22;10059;59.850;10.454;2022-09-03T15:42:54;16.80;99.90
19799;DHT22;10059;59.850;10.454;2022-09-03T15:45:32;16.80;99.90
19799;DHT22;10059;59.850;10.454;2022-09-03T15:48:09;16.70;99.90
19799;DHT22;10059;59.850;10.454;2022-09-03T15:50:51;16.70;99.90
19799;DHT22;10059;59.850;10.454;2022-09-03T15:53:28;16.70;99.90
19799;DHT22;10059;59.850;10.454;2022-09-03T15:56:14;16.60;99.90
19799;DHT22;10059;59.850;10.454;2022-09-03T15:58:49;16.70;99.90